ESGG/GOT METAR and TAF weather

Enter ICAO airport designator
Station Type Date Time Source
ESGG METAR 2019/06/20 06:50 UTC NOAA

ESGG 200650Z 18009KT CAVOK 18/14 Q1005


Station Type Date Time Source
ESGG Decoded METAR 2019/06/20 06:50 UTC NOAA

Goteborg / Landvetter, Sweden (ESGG) 57-40N 012-18E
Jun 20, 2019 - 02:50 AM EDT / 2019.06.20 0650 UTC
Wind: from the S (180 degrees) at 10 MPH (9 KT):0
Visibility: greater than 7 mile(s):0
Temperature: 64 F (18 C)
Dew Point: 57 F (14 C)
Relative Humidity: 77%
Pressure (altimeter): 29.68 in. Hg (1005 hPa)
ob: ESGG 200650Z 18009KT CAVOK 18/14 Q1005
cycle: 7

Station Type Date Time Source
ESGG TAF 2019/06/20 06:55 UTC NOAA

TAF ESGG 200530Z 2006/2106 15007KT CAVOK
BECMG 2008/2010 21012KT PROB40 2010/2017 SHRA BKN012 BKN040CB
BECMG 2015/2017 27008KT PROB40 2017/2106 BKN014

Example: see airport list